Packwaukee, WI (53953)

5:34 PM CDT on March 24, 2017 (GMT -0500)
Manley's@Cant Hill | | Change Station

Elev 1000 ft 43.87 °N, 89.49 °W | Updated 10 minutes ago

Overcast
Overcast
36.5 °F
Feels Like 36 °F
N
0.0
Wind Variable Wind from NW

Today
High -- | Low -- °F
--% Chance of Precip.
Yesterday
High -- | Low -- °F
Precip. -- in
Pressure 30.14 in
Visibility 6.0 miles
Clouds Overcast 700 ft
Windchill 36 °F
Dew Point 35 °F
Humidity 94%
Rainfall 0.05 in
Snow Depth Not available.
6:53 AM 7:15 PM
Waning Crescent, 12% visible
METAR KY50 242156Z AUTO 02010KT 6SM -RA BR OVC007 03/02 A3005 RMK AO2 SLP207 P0001 T00280022
Pressure 30.14 in
Visibility 6.0 miles
Clouds Overcast 700 ft
Windchill 36 °F
Dew Point 35 °F
Humidity 94%
Rainfall 0.05 in
Snow Depth Not available.
6:53 AM 7:15 PM
Waning Crescent, 12% visible
METAR KY50 242156Z AUTO 02010KT 6SM -RA BR OVC007 03/02 A3005 RMK AO2 SLP207 P0001 T00280022

Get Severe Weather Alerts

Thanks for signing up!

Be on the lookout for a verification email in your inbox.

You'll start receiving the daily forecast at 8 AM.

×

10-Day Weather Forecast

Almanac

Astronomy

Mar. 24, 2017 Rise Set
Actual Time
Civil Twilight
Nautical Twilight
Astronomical Twilight
Moon
Length of Visible Light
Length of Day
Tomorrow will be .
, % of the Moon is Illuminated

Today's Extremes

State Highs State Lows

Community

WunderPhotos

Upload Photos

1,962,540 photos uploaded!

WunderBlog® & News

Nearby

Air Quality

  Air Quality AQ Index Pollutant
Not available.

Snow Depth

Station Depth Elevation

Earthquake Activity

City Distance Mag. Time & Date
Minimum magnitude displayed is 2.5.

Earthquake Activity

City Distance Mag. Time & Date
Minimum magnitude displayed is 2.5.

Coastal Water Temperatures

Place Temperature

Stations

Nearby Weather Stations

Station Location Temp. Windchill Dew Point Humidity Wind Precip. Elev Updated Type
                   

Watches & Warnings

There are currently no watches in effect.